• Join FlightAware (Why Join?)
  • Login
  • US Flag 
03:41PM EDT


 

Airport Tracker/Info


-or-


 

Live Flight TrackerFlight Track Log ✈ KAP33 ✈ 11-Jul-2013 ✈ KACK - KEWB

Flight Track Log - Related Links

Times and Time Zones

All times are in EDT time to prevent confusion due to time zone crossing. See the KAP33 flight status page for this flight to view local times or setup timezone preferences in your user account.

Time Position Orientation Groundspeed Altitude Reporting Facility
EDT Latitude Longitude Course Direction KTS MPH feet Rate Location/Type
09:30AM 41.3080 -70.2671 290° West  Level FlightAware Approximate
09:31AM 41.3171 -70.3016 289° West  Level FlightAware Approximate
09:32AM 41.3211 -70.3265 283° West  Level FlightAware Approximate
09:33AM 41.3270 -70.3622 283° West  Level FlightAware Approximate
09:34AM 41.3330 -70.3979 283° West  Level FlightAware Approximate
09:35AM 41.3415 -70.4327 288° West  Level FlightAware Approximate
09:36AM 41.3502 -70.4674 288° West  Level FlightAware Approximate
09:37AM 41.3589 -70.5022 288° West  Level FlightAware Approximate
09:37AM 41.4500 -70.6150 318° Northwest 160 184 2,900  Level Boston Center
09:38AM 41.3676 -70.5369 288° West  Level FlightAware Approximate
09:38AM 41.4778 -70.6586 310° West 146 168 3,000  Level Boston Center
09:39AM 41.3763 -70.5716 288° West  Level FlightAware Approximate
09:39AM 41.5075 -70.6992 314° West 156 180 2,500  Level Boston Center
09:40AM 41.3871 -70.6045 318° Northwest  Level FlightAware Approximate
09:40AM 41.5375 -70.7483 309° West 167 192 2,000  Level Boston Center
09:41AM 41.4075 -70.6290 318° Northwest  Level FlightAware Approximate
09:41AM 41.5672 -70.7947 311° West 158 182 1,900  Level Boston Center
09:42AM 41.4279 -70.6535 318° Northwest  Level FlightAware Approximate
09:42AM 41.5928 -70.8358 310° West 147 169 1,900  Level Boston Center
09:43AM 41.6225 -70.8739 316° Northwest 154 177 1,500 -540 Descending Boston Center
09:44AM 41.6481 -70.9150 310° West 136 157 900 -660 Descending Boston Center
09:45AM 41.6653 -70.9422 310° West 119 137 300 -720 Descending Boston Center
09:47AM 41.6667 -70.9500 315° West  Level FlightAware Approximate
09:54AM 41.6766 -70.9578 315° West  Level Estimated
09:55AM 41.6766 -70.9578 315° West  Level Estimated
09:56AM 41.6766 -70.9578 315° West  Level Estimated
09:57AM 41.6766 -70.9578 315° West  Level Estimated
09:58AM 41.6766 -70.9578 315° West  Level Estimated
09:59AM 41.6766 -70.9578 315° West  Level Estimated
10:00AM 41.6766 -70.9578 315° West  Level Estimated
10:01AM 41.6766 -70.9578 315° West  Level Estimated